createdAt,value
2018-05-11T00:01:03.897Z,100914.05
2018-05-11T00:03:34.058Z,100914.08
2018-05-11T00:06:04.404Z,100914.41
2018-05-11T00:08:33.007Z,100913.36
2018-05-11T00:11:01.734Z,100914.55
2018-05-11T00:13:41.322Z,100913.20
2018-05-11T00:16:10.343Z,100912.94
2018-05-11T00:18:42.465Z,100907.69
2018-05-11T00:21:11.013Z,100911.83
2018-05-11T00:23:40.528Z,100911.61
2018-05-11T00:26:09.163Z,100906.75
2018-05-11T00:28:39.528Z,100906.86
2018-05-11T00:31:08.546Z,100907.81
2018-05-11T00:33:37.738Z,100904.64
2018-05-11T00:36:06.808Z,100908.34
2018-05-11T00:38:35.821Z,100912.67
2018-05-11T00:41:04.334Z,100913.00
2018-05-11T00:43:33.042Z,100915.20
2018-05-11T00:46:03.994Z,100912.47
2018-05-11T00:48:32.564Z,100914.45
2018-05-11T00:51:01.429Z,100918.41
2018-05-11T00:53:34.591Z,100906.06
2018-05-11T00:56:04.117Z,100908.23
2018-05-11T00:58:33.366Z,100915.17
2018-05-11T01:01:01.905Z,100908.37
2018-05-11T01:03:30.803Z,100909.68
2018-05-11T01:05:59.980Z,100901.53
2018-05-11T01:08:28.560Z,100900.98
2018-05-11T01:11:04.318Z,100902.70
2018-05-11T01:13:33.816Z,100906.59
2018-05-11T01:16:09.444Z,100907.98
2018-05-11T01:18:38.096Z,100899.50
2018-05-11T01:21:11.693Z,100903.66
2018-05-11T01:23:40.220Z,100902.11
2018-05-11T01:26:09.157Z,100894.58
2018-05-11T01:28:37.708Z,100894.44
2018-05-11T01:31:11.515Z,100890.31
2018-05-11T01:33:40.546Z,100889.72
2018-05-11T01:36:09.089Z,100890.47
2018-05-11T01:38:37.784Z,100891.80
2018-05-11T01:41:09.873Z,100892.30
2018-05-11T01:43:38.374Z,100891.36
2018-05-11T01:46:06.952Z,100895.03
2018-05-11T01:48:35.954Z,100900.41
2018-05-11T01:51:04.503Z,100902.30
2018-05-11T01:53:38.648Z,100904.02
2018-05-11T01:56:07.711Z,100897.15
2018-05-11T01:58:42.142Z,100900.55
2018-05-11T02:01:10.681Z,100895.90
2018-05-11T02:03:40.196Z,100894.19
2018-05-11T02:06:08.738Z,100892.17
2018-05-11T02:08:43.312Z,100896.30
2018-05-11T02:11:11.830Z,100896.39
2018-05-11T02:13:44.109Z,100892.13
2018-05-11T02:16:13.004Z,100898.44
2018-05-11T02:21:20.987Z,100902.10
2018-05-11T02:23:49.599Z,100900.84
2018-05-11T02:26:18.216Z,100912.86
2018-05-11T02:28:47.239Z,100914.27
2018-05-11T02:31:15.909Z,100912.42
2018-05-11T02:33:44.508Z,100913.31
2018-05-11T02:36:13.723Z,100908.00
2018-05-11T02:38:42.426Z,100903.71
2018-05-11T02:41:11.019Z,100902.86
2018-05-11T02:43:43.439Z,100908.72
2018-05-11T02:46:11.968Z,100904.86
2018-05-11T02:48:40.493Z,100899.95
2018-05-11T02:51:11.575Z,100900.84
2018-05-11T02:53:40.059Z,100899.58
2018-05-11T02:56:13.320Z,100903.34
2018-05-11T02:58:42.525Z,100901.26
2018-05-11T03:01:11.076Z,100903.20
2018-05-11T03:03:39.595Z,100901.88
2018-05-11T03:06:08.471Z,100904.62
2018-05-11T03:08:37.004Z,100904.68
2018-05-11T03:13:39.951Z,100914.17
2018-05-11T03:16:08.654Z,100915.43
2018-05-11T03:18:38.217Z,100917.41
2018-05-11T03:21:06.916Z,100918.89
2018-05-11T03:23:35.467Z,100918.00
2018-05-11T03:26:06.496Z,100922.92
2018-05-11T03:28:41.387Z,100921.17
2018-05-11T03:31:10.103Z,100922.92
2018-05-11T03:33:38.683Z,100923.81
2018-05-11T03:36:07.197Z,100920.23
2018-05-11T03:38:35.716Z,100928.86
2018-05-11T03:41:11.175Z,100927.30
2018-05-11T03:43:40.880Z,100933.73
2018-05-11T03:46:11.048Z,100936.92
2018-05-11T03:48:39.554Z,100936.34
2018-05-11T03:51:08.094Z,100939.56
2018-05-11T03:53:36.965Z,100942.66
2018-05-11T03:56:12.354Z,100939.84
2018-05-11T03:58:41.667Z,100945.50
2018-05-11T04:01:19.004Z,100945.20
2018-05-11T04:06:03.015Z,100949.06
2018-05-11T04:08:42.131Z,100943.05
2018-05-11T04:11:10.988Z,100938.58
2018-05-11T04:13:39.601Z,100940.44
2018-05-11T04:16:08.240Z,100952.97
2018-05-11T04:18:43.782Z,100949.48
2018-05-11T04:21:12.284Z,100947.45
2018-05-11T04:23:41.413Z,100950.31
2018-05-11T04:26:11.222Z,100948.30
2018-05-11T04:28:41.182Z,100950.51
2018-05-11T04:31:09.732Z,100952.26
2018-05-11T04:33:44.795Z,100946.22
2018-05-11T04:36:13.328Z,100953.55
2018-05-11T04:38:42.499Z,100951.89
2018-05-11T04:41:11.319Z,100950.05
2018-05-11T04:43:39.945Z,100952.20
2018-05-11T04:46:08.467Z,100948.45
2018-05-11T04:48:36.971Z,100951.77
2018-05-11T04:51:05.568Z,100959.34
2018-05-11T04:53:34.507Z,100968.75
2018-05-11T04:58:44.740Z,100970.70
2018-05-11T05:01:14.189Z,100968.74
2018-05-11T05:03:42.738Z,100967.23
2018-05-11T05:06:18.266Z,100968.48
2018-05-11T05:08:46.847Z,100971.53
2018-05-11T05:11:20.434Z,100971.83
2018-05-11T05:13:49.369Z,100974.62
2018-05-11T05:16:22.116Z,100979.20
2018-05-11T05:18:50.645Z,100980.69
2018-05-11T05:21:19.581Z,100981.70
2018-05-11T05:23:50.263Z,100976.28
2018-05-11T05:26:18.844Z,100978.62
2018-05-11T05:28:48.034Z,100979.13
2018-05-11T05:31:16.557Z,100977.38
2018-05-11T05:33:47.393Z,100975.83
2018-05-11T05:36:15.975Z,100978.28
2018-05-11T05:38:44.494Z,100972.47
2018-05-11T05:41:13.555Z,100972.27
2018-05-11T05:43:43.955Z,100978.28
2018-05-11T05:46:12.475Z,100976.45
2018-05-11T05:48:41.249Z,100975.52
2018-05-11T05:51:09.773Z,100975.02
2018-05-11T05:53:39.027Z,100969.37
2018-05-11T05:56:07.518Z,100967.53
2018-05-11T05:58:36.122Z,100968.83
2018-05-11T06:01:10.666Z,100974.42
2018-05-11T06:03:39.206Z,100968.28
2018-05-11T06:06:10.775Z,100972.98
2018-05-11T06:08:39.825Z,100966.98
2018-05-11T06:11:08.382Z,100963.61
2018-05-11T06:13:37.348Z,100963.01
2018-05-11T06:16:06.297Z,100968.55
2018-05-11T06:18:36.051Z,100968.63
2018-05-11T06:21:04.819Z,100969.43
2018-05-11T06:23:34.012Z,100965.74
2018-05-11T06:26:04.742Z,100968.73
2018-05-11T06:28:38.248Z,100968.59
2018-05-11T06:31:07.676Z,100970.31
2018-05-11T06:33:36.278Z,100962.28
2018-05-11T06:36:05.659Z,100963.28
2018-05-11T06:38:34.765Z,100961.25
2018-05-11T06:41:03.528Z,100953.63
2018-05-11T06:43:32.151Z,100955.66
2018-05-11T06:46:01.297Z,100955.70
2018-05-11T06:48:30.128Z,100956.53
2018-05-11T06:50:58.652Z,100954.69
2018-05-11T06:53:27.700Z,100951.10
2018-05-11T06:55:56.230Z,100939.72
2018-05-11T06:58:25.238Z,100938.82
2018-05-11T07:00:53.755Z,100940.93
2018-05-11T07:03:22.458Z,100936.52
2018-05-11T07:05:51.379Z,100936.27
2018-05-11T07:08:19.943Z,100932.48
2018-05-11T07:10:48.546Z,100931.73
2018-05-11T07:13:17.079Z,100930.70
2018-05-11T07:15:45.601Z,100922.50
2018-05-11T07:18:14.679Z,100921.42
2018-05-11T07:20:43.503Z,100922.42
2018-05-11T07:23:12.139Z,100914.41
2018-05-11T07:25:41.202Z,100911.56
2018-05-11T07:28:09.747Z,100905.73
2018-05-11T07:30:38.427Z,100901.52
2018-05-11T07:33:07.635Z,100901.68
2018-05-11T07:35:36.294Z,100899.70
2018-05-11T07:38:16.222Z,100896.20
2018-05-11T07:40:45.199Z,100894.47
2018-05-11T07:43:13.838Z,100896.70
2018-05-11T07:45:42.409Z,100896.95
2018-05-11T07:48:11.504Z,100894.69
2018-05-11T07:50:40.202Z,100893.63
2018-05-11T07:53:09.016Z,100897.95
2018-05-11T07:55:38.076Z,100894.57
2018-05-11T07:58:06.708Z,100898.50
2018-05-11T08:00:35.353Z,100903.06
2018-05-11T08:03:04.559Z,100902.09
2018-05-11T08:05:33.179Z,100897.45
2018-05-11T08:08:05.420Z,100896.19
2018-05-11T08:10:34.322Z,100894.83
2018-05-11T08:13:08.715Z,100889.00
2018-05-11T08:15:37.288Z,100895.85
2018-05-11T08:18:06.323Z,100890.09
2018-05-11T08:20:34.935Z,100885.31
2018-05-11T08:23:04.819Z,100887.52
2018-05-11T08:25:35.400Z,100884.22
2018-05-11T08:28:08.022Z,100883.27
2018-05-11T08:30:38.465Z,100880.61
2018-05-11T08:33:07.202Z,100873.18
2018-05-11T08:35:35.900Z,100877.27
2018-05-11T08:38:06.140Z,100872.53
2018-05-11T08:40:35.093Z,100879.83
2018-05-11T08:43:04.030Z,100871.73
2018-05-11T08:45:45.215Z,100865.58
2018-05-11T08:48:13.803Z,100860.90
2018-05-11T08:50:42.520Z,100860.00
2018-05-11T08:53:11.564Z,100864.14
2018-05-11T08:55:40.221Z,100864.22
2018-05-11T08:58:08.833Z,100862.66
2018-05-11T09:00:44.467Z,100858.80
2018-05-11T09:03:13.076Z,100851.55
2018-05-11T09:05:47.744Z,100857.02
2018-05-11T09:08:16.408Z,100860.23
2018-05-11T09:10:45.673Z,100854.42
2018-05-11T09:13:14.222Z,100851.03
2018-05-11T09:15:46.342Z,100851.50
2018-05-11T09:18:15.980Z,100844.78
2018-05-11T09:20:44.496Z,100848.31
2018-05-11T09:23:13.093Z,100839.60
2018-05-11T09:25:41.662Z,100843.52
2018-05-11T09:28:10.262Z,100842.73
2018-05-11T09:30:41.146Z,100840.37
2018-05-11T09:33:09.687Z,100839.82
2018-05-11T09:35:39.929Z,100830.60
2018-05-11T09:38:08.634Z,100837.31
2018-05-11T09:40:37.456Z,100827.35
2018-05-11T09:43:06.467Z,100832.71
2018-05-11T09:45:36.618Z,100828.24
2018-05-11T09:48:05.939Z,100828.72
2018-05-11T09:50:34.953Z,100832.51
2018-05-11T09:53:03.665Z,100824.38
2018-05-11T09:55:32.303Z,100820.34
2018-05-11T09:58:03.044Z,100820.30
2018-05-11T10:00:31.580Z,100819.00
2018-05-11T10:03:00.124Z,100815.72
2018-05-11T10:05:29.806Z,100815.86
2018-05-11T10:07:58.309Z,100813.34
2018-05-11T10:10:32.679Z,100811.94
2018-05-11T10:13:01.626Z,100818.10
2018-05-11T10:15:30.197Z,100813.64
2018-05-11T10:18:03.467Z,100808.43
2018-05-11T10:20:33.166Z,100808.63
2018-05-11T10:23:02.340Z,100811.47
2018-05-11T10:25:31.011Z,100811.84
2018-05-11T10:27:59.929Z,100798.00
2018-05-11T10:30:28.492Z,100800.72
2018-05-11T10:32:58.336Z,100801.32
2018-05-11T10:35:27.236Z,100795.84
2018-05-11T10:37:55.828Z,100802.20
2018-05-11T10:40:24.568Z,100799.72
2018-05-11T10:42:53.630Z,100797.05
2018-05-11T10:45:22.311Z,100793.70
2018-05-11T10:47:50.850Z,100792.27
2018-05-11T10:50:19.626Z,100786.16
2018-05-11T10:52:49.013Z,100782.72
2018-05-11T10:55:18.040Z,100780.16
2018-05-11T10:57:53.528Z,100768.64
2018-05-11T11:00:22.294Z,100774.34
2018-05-11T11:02:56.597Z,100772.50
2018-05-11T11:05:25.584Z,100770.33
2018-05-11T11:10:20.209Z,100759.70
2018-05-11T11:12:49.077Z,100756.77
2018-05-11T11:15:18.984Z,100753.98
2018-05-11T11:17:47.735Z,100753.56
2018-05-11T11:20:16.357Z,100748.54
2018-05-11T11:22:47.629Z,100745.08
2018-05-11T11:25:16.354Z,100739.17
2018-05-11T11:27:47.185Z,100735.72
2018-05-11T11:30:16.236Z,100735.59
2018-05-11T11:32:44.987Z,100736.80
2018-05-11T11:55:05.827Z,100701.94
2018-05-11T11:57:34.438Z,100704.89
2018-05-11T12:00:07.678Z,100695.13
2018-05-11T12:02:37.103Z,100695.67
2018-05-11T12:05:05.918Z,100695.64
2018-05-11T12:07:34.717Z,100694.48
2018-05-11T12:10:05.639Z,100690.05
2018-05-11T12:25:34.785Z,100688.48
2018-05-11T12:28:11.574Z,100678.13
2018-05-11T12:30:40.374Z,100679.84
2018-05-11T12:33:09.166Z,100672.86
2018-05-11T12:35:38.995Z,100676.63
2018-05-11T12:38:08.004Z,100678.09
2018-05-11T12:40:37.146Z,100677.31
2018-05-11T12:43:06.124Z,100673.69
2018-05-11T12:45:34.861Z,100675.73
2018-05-11T12:48:06.539Z,100684.98
2018-05-11T12:50:37.651Z,100680.42
2018-05-11T12:53:06.514Z,100674.37
2018-05-11T12:55:35.098Z,100674.56
2018-05-11T12:58:07.775Z,100670.41
2018-05-11T13:00:36.540Z,100654.17
2018-05-11T13:03:05.339Z,100649.59
2018-05-11T13:05:34.399Z,100650.58
2018-05-11T13:08:06.877Z,100645.51
2018-05-11T13:10:35.563Z,100646.25
2018-05-11T13:13:05.288Z,100642.98
2018-05-11T13:15:33.886Z,100638.25
2018-05-11T13:18:07.727Z,100631.59
2018-05-11T13:20:36.481Z,100630.26
2018-05-11T13:23:04.988Z,100624.48
2018-05-11T13:25:34.003Z,100623.28
2018-05-11T13:28:08.534Z,100621.99
2018-05-11T13:30:37.324Z,100620.02
2018-05-11T13:33:10.056Z,100623.92
2018-05-11T13:35:39.807Z,100620.17
2018-05-11T13:38:08.564Z,100611.22
2018-05-11T13:40:37.589Z,100614.90
2018-05-11T13:43:06.164Z,100612.44
2018-05-11T13:45:34.708Z,100609.33
2018-05-11T13:48:20.163Z,100600.73
2018-05-11T13:50:48.614Z,100602.75
2018-05-11T13:53:17.427Z,100603.95
2018-05-11T13:55:51.006Z,100605.88
2018-05-11T13:58:19.583Z,100595.00
2018-05-11T14:00:48.650Z,100595.42
2018-05-11T14:03:17.192Z,100587.56
2018-05-11T14:05:46.011Z,100585.92
2018-05-11T14:08:14.904Z,100591.27
2018-05-11T14:13:23.298Z,100588.32
2018-05-11T14:15:52.347Z,100586.72
2018-05-11T14:18:20.999Z,100584.48
2018-05-11T14:20:49.603Z,100583.17
2018-05-11T14:23:18.531Z,100579.32
2018-05-11T14:25:47.440Z,100578.56
2018-05-11T14:28:17.861Z,100583.77
2018-05-11T14:30:46.739Z,100592.13
2018-05-11T14:33:15.256Z,100585.58
2018-05-11T14:35:43.821Z,100587.68
2018-05-11T14:38:12.626Z,100578.21
2018-05-11T14:40:41.221Z,100580.11
2018-05-11T14:43:09.806Z,100576.73
2018-05-11T14:45:42.319Z,100571.21
2018-05-11T14:48:11.006Z,100572.56
2018-05-11T14:50:39.551Z,100571.12
2018-05-11T14:53:13.878Z,100567.23
2018-05-11T14:55:42.463Z,100568.59
2018-05-11T14:58:10.987Z,100569.56
2018-05-11T15:00:39.793Z,100566.89
2018-05-11T15:03:08.382Z,100561.10
2018-05-11T15:05:36.940Z,100552.09
2018-05-11T15:08:06.675Z,100558.00
2018-05-11T15:10:35.239Z,100555.20
2018-05-11T15:13:04.008Z,100555.37
2018-05-11T15:15:33.433Z,100550.02
2018-05-11T15:18:06.358Z,100549.69
2018-05-11T15:20:38.376Z,100550.03
2018-05-11T15:23:07.180Z,100543.45
2018-05-11T15:25:37.320Z,100551.31
2018-05-11T15:28:05.931Z,100538.09
2018-05-11T15:30:35.551Z,100537.34
2018-05-11T15:33:04.160Z,100531.54
2018-05-11T15:35:32.698Z,100525.25
2018-05-11T15:38:03.340Z,100526.93
2018-05-11T15:40:31.886Z,100525.45
2018-05-11T15:43:00.471Z,100516.50
2018-05-11T15:45:32.035Z,100510.31
2018-05-11T15:48:00.554Z,100508.84
2018-05-11T15:50:29.272Z,100506.47
2018-05-11T15:52:58.176Z,100509.00
2018-05-11T15:55:26.742Z,100512.42
2018-05-11T15:57:55.251Z,100513.77
2018-05-11T16:00:24.137Z,100510.30
2018-05-11T16:02:52.667Z,100508.62
2018-05-11T16:05:21.312Z,100509.13
2018-05-11T16:07:50.531Z,100512.83
2018-05-11T16:10:19.281Z,100505.55
2018-05-11T16:12:47.906Z,100516.13
2018-05-11T16:15:16.676Z,100512.77
2018-05-11T16:17:45.213Z,100509.55
2018-05-11T16:20:13.769Z,100514.71
2018-05-11T16:22:42.552Z,100510.09
2018-05-11T16:25:11.100Z,100520.03
2018-05-11T16:27:39.614Z,100517.16
2018-05-11T16:30:08.550Z,100518.11
2018-05-11T16:32:37.159Z,100514.47
2018-05-11T16:35:05.746Z,100504.33
2018-05-11T16:37:37.960Z,100513.61
2018-05-11T16:40:06.503Z,100507.13
2018-05-11T16:42:35.039Z,100513.20
2018-05-11T16:45:04.292Z,100512.27
2018-05-11T16:47:32.836Z,100509.25
2018-05-11T16:50:03.374Z,100509.66
2018-05-11T16:52:32.351Z,100506.14
2018-05-11T16:55:04.153Z,100506.91
2018-05-11T16:57:32.697Z,100507.44
2018-05-11T17:00:02.790Z,100501.03
2018-05-11T17:02:31.471Z,100504.32
2018-05-11T17:05:00.052Z,100501.48
2018-05-11T17:07:28.892Z,100495.27
2018-05-11T17:09:57.774Z,100489.23
2018-05-11T17:12:26.407Z,100491.50
2018-05-11T17:14:56.030Z,100487.41
2018-05-11T17:17:24.664Z,100491.08
2018-05-11T17:19:53.263Z,100486.14
2018-05-11T17:22:22.248Z,100485.88
2018-05-11T17:24:50.780Z,100484.37
2018-05-11T17:27:19.387Z,100485.47
2018-05-11T17:29:49.051Z,100490.71
2018-05-11T17:32:17.635Z,100485.09
2018-05-11T17:34:46.215Z,100487.84
2018-05-11T17:37:15.639Z,100492.97
2018-05-11T17:40:01.005Z,100494.37
2018-05-11T17:42:32.973Z,100494.00
2018-05-11T17:45:06.512Z,100487.98
2018-05-11T17:47:35.368Z,100485.70
2018-05-11T17:50:05.157Z,100484.37
2018-05-11T17:52:33.715Z,100488.75
2018-05-11T17:55:02.437Z,100483.53
2018-05-11T17:57:31.364Z,100487.20
2018-05-11T18:00:00.210Z,100484.45
2018-05-11T18:02:28.792Z,100484.00
2018-05-11T18:04:57.378Z,100490.78
2018-05-11T18:07:31.976Z,100496.15
2018-05-11T18:10:00.788Z,100489.50
2018-05-11T18:12:29.245Z,100495.67
2018-05-11T18:14:57.782Z,100488.70
2018-05-11T18:17:37.357Z,100497.38
2018-05-11T18:20:07.095Z,100494.31
2018-05-11T18:22:35.652Z,100494.83
2018-05-11T18:25:04.416Z,100494.16
2018-05-11T18:27:33.322Z,100492.91
2018-05-11T18:30:04.154Z,100494.00
2018-05-11T18:32:32.664Z,100491.58
2018-05-11T18:35:01.634Z,100491.95
2018-05-11T18:37:30.167Z,100491.37
2018-05-11T18:39:59.005Z,100493.81
2018-05-11T18:42:27.909Z,100487.73
2018-05-11T18:44:56.467Z,100496.76
2018-05-11T18:47:25.354Z,100502.12
2018-05-11T18:49:54.315Z,100503.65
2018-05-11T18:52:23.031Z,100507.83
2018-05-11T18:54:51.639Z,100504.76
2018-05-11T18:57:24.932Z,100511.08
2018-05-11T18:59:53.550Z,100508.72
2018-05-11T19:02:22.407Z,100509.53
2018-05-11T19:04:51.343Z,100517.20
2018-05-11T19:07:19.906Z,100515.84
2018-05-11T19:09:48.547Z,100521.33
2018-05-11T19:12:17.429Z,100521.78
2018-05-11T19:14:46.904Z,100525.09
2018-05-11T19:17:16.209Z,100527.29
2018-05-11T19:19:45.103Z,100523.36
2018-05-11T19:22:13.622Z,100538.55
2018-05-11T19:24:42.192Z,100536.63
2018-05-11T19:27:11.030Z,100538.72
2018-05-11T19:29:40.006Z,100546.14
2018-05-11T19:32:08.832Z,100542.84
2018-05-11T19:34:37.765Z,100549.62
2018-05-11T19:37:06.385Z,100551.33
2018-05-11T19:39:34.966Z,100553.73
2018-05-11T19:42:05.304Z,100549.09
2018-05-11T19:44:33.958Z,100561.33
2018-05-11T19:47:02.688Z,100569.50
2018-05-11T19:49:31.533Z,100570.36
2018-05-11T19:52:00.399Z,100570.36
2018-05-11T19:54:29.042Z,100574.52
2018-05-11T19:56:57.900Z,100574.42
2018-05-11T19:59:27.020Z,100580.77
2018-05-11T20:01:55.563Z,100576.65
2018-05-11T20:04:24.629Z,100575.09
2018-05-11T20:06:59.110Z,100577.07
2018-05-11T20:09:27.633Z,100583.90
2018-05-11T20:11:57.870Z,100588.45
2018-05-11T20:14:26.408Z,100580.68
2018-05-11T20:17:05.776Z,100589.34
2018-05-11T20:19:34.580Z,100588.45
2018-05-11T20:22:04.157Z,100585.08
2018-05-11T20:24:33.146Z,100582.47
2018-05-11T20:27:02.143Z,100587.27
2018-05-11T20:29:30.743Z,100590.56
2018-05-11T20:31:59.302Z,100588.53
2018-05-11T20:34:28.183Z,100592.16
2018-05-11T20:36:56.750Z,100590.07
2018-05-11T20:39:25.306Z,100589.22
2018-05-11T20:44:27.563Z,100588.78
2018-05-11T20:46:58.377Z,100594.41
2018-05-11T20:49:27.212Z,100589.55
2018-05-11T20:51:58.785Z,100587.45
2018-05-11T20:54:27.367Z,100588.23
2018-05-11T20:56:57.198Z,100593.14
2018-05-11T20:59:25.933Z,100588.97
2018-05-11T21:01:54.468Z,100589.67
2018-05-11T21:04:23.801Z,100593.60
2018-05-11T21:06:54.291Z,100587.50
2018-05-11T21:09:23.001Z,100590.16
2018-05-11T21:11:52.184Z,100584.59
2018-05-11T21:14:20.708Z,100588.97
2018-05-11T21:16:51.127Z,100589.59
2018-05-11T21:19:19.951Z,100584.19
2018-05-11T21:21:54.868Z,100587.34
2018-05-11T21:24:23.619Z,100588.89
2018-05-11T21:26:52.179Z,100595.14
2018-05-11T21:29:22.161Z,100595.29
2018-05-11T21:31:52.024Z,100593.45
2018-05-11T21:34:20.577Z,100599.75
2018-05-11T21:36:49.126Z,100597.51
2018-05-11T21:39:17.954Z,100591.95
2018-05-11T21:41:46.542Z,100592.09
2018-05-11T21:44:15.101Z,100595.88
2018-05-11T21:46:44.584Z,100598.20
2018-05-11T21:49:13.159Z,100598.45
2018-05-11T21:51:48.327Z,100599.56
2018-05-11T21:54:16.811Z,100598.94
2018-05-11T21:56:45.806Z,100602.00
2018-05-11T21:59:14.622Z,100596.16
2018-05-11T22:01:43.191Z,100597.70
2018-05-11T22:04:11.786Z,100600.98
2018-05-11T22:06:40.951Z,100595.84
2018-05-11T22:09:09.494Z,100594.97
2018-05-11T22:11:48.855Z,100594.27
2018-05-11T22:14:17.715Z,100593.41
2018-05-11T22:16:46.608Z,100593.75
2018-05-11T22:19:15.176Z,100592.13
2018-05-11T22:21:45.060Z,100588.38
2018-05-11T22:24:13.682Z,100593.57
2018-05-11T22:26:42.246Z,100592.77
2018-05-11T22:29:14.012Z,100595.09
2018-05-11T22:31:42.515Z,100588.69
2018-05-11T22:34:11.274Z,100586.92
2018-05-11T22:36:39.762Z,100593.52
2018-05-11T22:39:08.265Z,100592.23
2018-05-11T22:41:36.741Z,100584.24
2018-05-11T22:44:07.430Z,100581.69
2018-05-11T22:46:36.239Z,100584.12
2018-05-11T22:49:04.838Z,100582.64
2018-05-11T22:51:33.809Z,100580.55
2018-05-11T22:54:10.345Z,100579.74
2018-05-11T22:56:39.216Z,100577.98
2018-05-11T22:59:07.731Z,100571.47
2018-05-11T23:01:36.567Z,100578.98
2018-05-11T23:04:06.864Z,100577.03
2018-05-11T23:06:35.474Z,100576.23
2018-05-11T23:09:04.778Z,100576.80
2018-05-11T23:11:33.284Z,100575.52
2018-05-11T23:14:03.839Z,100574.42
2018-05-11T23:16:32.619Z,100569.86
2018-05-11T23:19:01.168Z,100574.95
2018-05-11T23:21:29.700Z,100572.80
2018-05-11T23:23:58.561Z,100572.99
2018-05-11T23:26:27.278Z,100568.48
2018-05-11T23:28:55.986Z,100569.33
2018-05-11T23:31:25.068Z,100571.70
2018-05-11T23:33:53.591Z,100565.19
2018-05-11T23:36:23.748Z,100563.20
2018-05-11T23:38:52.562Z,100560.62
2018-05-11T23:41:27.165Z,100552.16
2018-05-11T23:43:55.727Z,100553.55
2018-05-11T23:46:24.880Z,100552.30
2018-05-11T23:48:53.419Z,100553.34
2018-05-11T23:51:25.082Z,100544.13
2018-05-11T23:53:53.684Z,100546.64
2018-05-11T23:56:23.164Z,100545.27
2018-05-11T23:58:52.034Z,100539.89
